Time;durP1;ratioP1;P1;durP2;ratioP2;P2;SDS_P1;SDS_P2;PMS_P1;PMS_P2;Temp;Humidity;BMP_temperature;BMP_pressure;BME280_temperature;BME280_humidity;BME280_pressure;Samples;Min_cycle;Max_cycle;Signal;HPM_P1;HPM_P2
2022/11/19 00:00:01;;;;;;;22.03;17.40;;;;;;;11.45;100.00;100342.53;2071992;28;20217;-61
2022/11/19 00:01:11;;;;;;;20.50;18.30;;;;;;;11.04;100.00;100306.59;2071889;28;20701;-61
2022/11/19 00:02:11;;;;;;;21.60;17.60;;;;;;;11.18;100.00;100326.34;2072166;28;20255;-62
2022/11/19 00:03:17;;;;;;;18.77;16.37;;;;;;;10.63;100.00;100251.22;2071937;28;20421;-61
2022/11/19 00:04:17;;;;;;;17.53;15.73;;;;;;;11.25;100.00;100344.75;2072130;28;20194;-61
2022/11/19 00:05:18;;;;;;;23.10;19.60;;;;;;;11.19;100.00;100352.88;2071867;28;20451;-61
2022/11/19 00:06:24;;;;;;;22.07;19.77;;;;;;;11.08;100.00;100340.53;2071965;28;20264;-61
2022/11/19 00:07:25;;;;;;;22.30;19.90;;;;;;;11.12;100.00;100346.75;2072087;28;20174;-61
2022/11/19 00:08:25;;;;;;;22.83;20.30;;;;;;;11.09;100.00;100347.63;2071634;28;20439;-62
2022/11/19 00:09:25;;;;;;;22.47;20.13;;;;;;;11.07;100.00;100350.09;2072009;28;20197;-61
2022/11/19 00:10:26;;;;;;;23.50;20.30;;;;;;;11.03;100.00;100344.66;2071631;28;20185;-61
2022/11/19 00:12:55;;;;;;;24.07;20.70;;;;;;;10.39;100.00;100252.72;2071672;28;20193;-61
2022/11/19 00:13:55;;;;;;;22.43;19.97;;;;;;;10.74;100.00;100310.66;2071498;28;20925;-61
2022/11/19 00:14:56;;;;;;;22.90;20.13;;;;;;;10.98;100.00;100356.28;2072301;28;20437;-61
2022/11/19 00:16:17;;;;;;;23.10;20.03;;;;;;;10.95;100.00;100348.06;2071348;28;20181;-61
2022/11/19 00:17:18;;;;;;;24.70;20.07;;;;;;;10.74;100.00;100352.25;2071571;28;20190;-61
2022/11/19 00:18:18;;;;;;;25.07;20.67;;;;;;;10.64;100.00;100349.75;2071972;28;20446;-61
2022/11/19 00:19:19;;;;;;;25.03;20.63;;;;;;;10.63;100.00;100362.84;2071687;28;20193;-61
2022/11/19 00:20:19;;;;;;;21.63;19.40;;;;;;;10.66;100.00;100358.44;2071984;28;20630;-61
2022/11/19 00:21:19;;;;;;;24.90;21.60;;;;;;;10.58;100.00;100348.75;2071660;28;20236;-61
2022/11/19 00:22:20;;;;;;;21.67;19.37;;;;;;;10.54;100.00;100351.63;2071944;28;20219;-62
2022/11/19 00:23:21;;;;;;;23.40;20.90;;;;;;;10.60;100.00;100368.50;2071581;28;20189;-61
2022/11/19 00:24:22;;;;;;;24.30;20.97;;;;;;;10.61;100.00;100376.34;2071863;28;20277;-61
2022/11/19 00:25:24;;;;;;;22.43;20.03;;;;;;;10.62;100.00;100377.13;2071388;28;20447;-61
2022/11/19 00:26:25;;;;;;;22.30;19.20;;;;;;;9.88;100.00;100273.88;2079447;28;20324;-61
2022/11/19 00:27:25;;;;;;;23.43;20.97;;;;;;;10.57;100.00;100391.53;2079352;28;20442;-61
2022/11/19 00:28:26;;;;;;;27.20;22.50;;;;;;;10.55;100.00;100394.72;2071839;28;20209;-61
2022/11/19 00:29:26;;;;;;;28.27;23.37;;;;;;;10.60;100.00;100396.97;2071603;28;20193;-61
2022/11/19 00:30:26;;;;;;;26.63;22.50;;;;;;;10.54;100.00;100398.72;2071980;28;20223;-61
2022/11/19 00:31:27;;;;;;;23.60;21.13;;;;;;;10.57;100.00;100405.38;2071966;28;20673;-60
2022/11/19 00:32:29;;;;;;;22.93;20.30;;;;;;;10.52;100.00;100397.59;2072049;28;20215;-61
2022/11/19 00:33:30;;;;;;;23.13;19.90;;;;;;;10.57;100.00;100400.63;2072035;28;20273;-61
2022/11/19 00:34:31;;;;;;;21.03;18.70;;;;;;;10.57;100.00;100402.59;2071989;28;20423;-61
2022/11/19 00:35:31;;;;;;;24.73;22.10;;;;;;;10.57;100.00;100402.59;2071834;28;20213;-61
2022/11/19 00:36:31;;;;;;;25.73;22.83;;;;;;;10.54;100.00;100407.03;2071741;28;20213;-62
2022/11/19 00:37:32;;;;;;;24.70;21.10;;;;;;;9.64;100.00;100271.78;2074237;28;20732;-61
2022/11/19 00:38:33;;;;;;;23.00;20.33;;;;;;;9.90;100.00;100315.75;2073986;28;20260;-62
2022/11/19 00:39:33;;;;;;;23.00;19.73;;;;;;;10.53;100.00;100415.78;2071778;28;20180;-61
2022/11/19 00:40:34;;;;;;;20.47;17.90;;;;;;;10.52;100.00;100420.56;2071801;28;20177;-61
2022/11/19 00:41:34;;;;;;;21.67;19.37;;;;;;;10.49;100.00;100424.19;2071986;28;20244;-61
2022/11/19 00:42:34;;;;;;;21.73;19.37;;;;;;;10.47;100.00;100434.16;2072023;28;20670;-61
2022/11/19 00:43:47;;;;;;;22.37;20.07;;;;;;;10.49;100.00;100435.28;2071690;28;20189;-61
2022/11/19 00:44:47;;;;;;;22.73;20.33;;;;;;;9.93;100.00;100347.31;2071258;28;20701;-61
2022/11/19 00:45:49;;;;;;;23.90;20.80;;;;;;;10.55;100.00;100441.84;2071676;28;20433;-61
2022/11/19 00:46:49;;;;;;;22.43;20.07;;;;;;;10.53;100.00;100444.28;2072109;28;20192;-61
2022/11/19 00:47:49;;;;;;;21.93;19.43;;;;;;;10.53;100.00;100433.19;2071594;28;20478;-61
2022/11/19 00:48:52;;;;;;;22.17;19.73;;;;;;;10.51;100.00;100435.59;2071551;28;20589;-61
2022/11/19 00:49:52;;;;;;;21.70;19.50;;;;;;;10.49;100.00;100440.03;2071407;28;20671;-61
2022/11/19 00:50:53;;;;;;;22.27;19.33;;;;;;;10.48;100.00;100441.25;2071338;28;20529;-61
2022/11/19 00:51:54;;;;;;;20.40;18.20;;;;;;;10.46;100.00;100446.44;2071147;28;20221;-62
2022/11/19 00:52:54;;;;;;;19.20;17.13;;;;;;;10.41;100.00;100450.50;2072025;28;20184;-63
2022/11/19 00:53:55;;;;;;;23.07;17.93;;;;;;;10.34;100.00;100445.16;2071514;28;20184;-63
2022/11/19 00:54:56;;;;;;;18.57;16.70;;;;;;;10.32;100.00;100444.81;2071910;28;20195;-64
2022/11/19 00:56:04;;;;;;;17.13;15.40;;;;;;;10.32;100.00;100444.03;2071477;28;20534;-63
2022/11/19 00:57:04;;;;;;;19.27;16.07;;;;;;;10.28;100.00;100463.53;2071939;28;20185;-64
2022/11/19 00:58:05;;;;;;;16.97;15.13;;;;;;;10.30;100.00;100463.09;2071620;28;20423;-64
2022/11/19 00:59:05;;;;;;;18.10;15.73;;;;;;;9.68;100.00;100385.91;2071590;28;20209;-64
2022/11/19 01:00:06;;;;;;;15.73;14.10;;;;;;;10.33;100.00;100468.53;2071546;28;20185;-65
2022/11/19 01:01:08;;;;;;;15.17;13.57;;;;;;;10.38;100.00;100489.38;2071328;28;20756;-64
2022/11/19 01:02:09;;;;;;;12.43;11.17;;;;;;;10.39;100.00;100479.84;2071620;28;20942;-64
2022/11/19 01:03:09;;;;;;;16.10;12.57;;;;;;;10.44;100.00;100473.78;2071522;28;20806;-63
2022/11/19 01:04:10;;;;;;;12.60;11.13;;;;;;;10.49;100.00;100487.91;2071809;28;20638;-64
2022/11/19 01:05:10;;;;;;;10.97;9.80;;;;;;;9.81;100.00;100373.72;2071498;28;20274;-64
2022/11/19 01:06:12;;;;;;;10.90;9.80;;;;;;;10.62;100.00;100487.97;2071361;28;20223;-64
2022/11/19 01:07:13;;;;;;;11.43;9.57;;;;;;;10.63;100.00;100479.22;2071553;28;20181;-63
2022/11/19 01:08:13;;;;;;;11.43;10.30;;;;;;;10.74;100.00;100476.97;2071315;28;20424;-64
2022/11/19 01:09:14;;;;;;;14.20;12.80;;;;;;;10.76;100.00;100482.81;2071548;28;20182;-64
2022/11/19 01:10:14;;;;;;;14.00;12.67;;;;;;;10.81;100.00;100490.63;2071638;28;20189;-64
2022/11/19 01:11:19;;;;;;;13.30;11.97;;;;;;;10.82;100.00;100486.63;2071617;28;21071;-64
2022/11/19 01:12:19;;;;;;;16.87;13.40;;;;;;;10.80;100.00;100483.53;2070912;28;20655;-63
2022/11/19 01:13:35;;;;;;;10.77;9.67;;;;;;;10.02;100.00;100375.94;2071592;28;20878;-63
2022/11/19 01:14:35;;;;;;;11.30;9.70;;;;;;;10.76;100.00;100488.38;2071856;28;20219;-63
2022/11/19 01:15:35;;;;;;;11.70;9.47;;;;;;;10.79;100.00;100493.06;2071348;28;20506;-64
2022/11/19 01:16:38;;;;;;;9.10;8.20;;;;;;;10.79;100.00;100492.25;2071616;28;20272;-64
2022/11/19 01:17:38;;;;;;;13.37;11.43;;;;;;;10.79;100.00;100497.81;2071555;28;20201;-63
2022/11/19 01:18:40;;;;;;;8.63;7.83;;;;;;;10.79;100.00;100504.13;2071782;28;20944;-63
2022/11/19 01:19:41;;;;;;;12.13;10.90;;;;;;;10.79;100.00;100506.91;2071786;28;20197;-64
2022/11/19 01:20:41;;;;;;;10.77;9.50;;;;;;;10.79;100.00;100500.59;2071775;28;20447;-64
2022/11/19 01:21:42;;;;;;;10.80;9.70;;;;;;;10.81;100.00;100504.47;2071748;28;20181;-63
2022/11/19 01:22:42;;;;;;;10.07;7.97;;;;;;;10.80;100.00;100500.16;2070478;28;20185;-64
2022/11/19 01:23:43;;;;;;;8.63;7.73;;;;;;;10.85;100.00;100507.94;2071555;28;20358;-63
2022/11/19 01:24:44;;;;;;;9.83;7.73;;;;;;;10.88;100.00;100509.06;2071909;28;20263;-63
2022/11/19 01:25:44;;;;;;;6.80;6.10;;;;;;;10.57;100.00;100456.03;2071410;28;20440;-64
2022/11/19 01:26:45;;;;;;;8.30;6.33;;;;;;;10.99;100.00;100509.53;2071394;28;20244;-63
2022/11/19 01:27:45;;;;;;;7.00;6.30;;;;;;;11.01;100.00;100515.44;2071052;28;20188;-65
2022/11/19 01:28:46;;;;;;;7.57;5.90;;;;;;;11.03;100.00;100519.34;2071421;28;20269;-64
2022/11/19 01:29:47;;;;;;;7.10;5.40;;;;;;;11.09;100.00;100514.03;2071344;28;20196;-63
2022/11/19 01:30:47;;;;;;;5.63;5.13;;;;;;;11.12;100.00;100513.16;2071637;28;20283;-63
2022/11/19 01:31:47;;;;;;;5.50;5.00;;;;;;;11.17;100.00;100501.53;2071532;28;20255;-63
2022/11/19 01:32:48;;;;;;;7.60;5.40;;;;;;;10.48;100.00;100389.38;2071445;28;20564;-64
2022/11/19 01:33:49;;;;;;;6.27;5.63;;;;;;;11.24;100.00;100507.66;2071464;28;20207;-63
2022/11/19 01:34:50;;;;;;;5.23;4.73;;;;;;;11.29;100.00;100500.78;2071457;28;20188;-64
2022/11/19 01:35:58;;;;;;;7.07;6.03;;;;;;;11.40;100.00;100515.13;2070565;28;20413;-64
2022/11/19 01:36:58;;;;;;;6.70;6.00;;;;;;;10.78;100.00;100407.56;2071036;28;20269;-65
2022/11/19 01:38:00;;;;;;;6.50;5.07;;;;;;;11.47;100.00;100506.59;2071797;28;20423;-65
2022/11/19 01:39:00;;;;;;;7.80;5.90;;;;;;;11.29;100.00;100500.78;2071066;28;20263;-64
2022/11/19 01:40:01;;;;;;;5.80;4.77;;;;;;;10.78;100.00;100413.09;2071541;28;20440;-64
2022/11/19 01:41:02;;;;;;;5.83;5.13;;;;;;;11.51;100.00;100505.28;2071473;28;20260;-64
2022/11/19 01:42:02;;;;;;;7.20;5.73;;;;;;;11.59;100.00;100503.09;2071320;28;20186;-63
2022/11/19 01:43:03;;;;;;;5.30;4.80;;;;;;;11.59;100.00;100511.41;2071550;28;20523;-64
2022/11/19 01:44:07;;;;;;;6.60;5.93;;;;;;;11.51;100.00;100493.38;2071527;28;20200;-63
2022/11/19 01:45:26;;;;;;;6.60;5.30;;;;;;;11.55;100.00;100507.94;2071015;28;20185;-64
2022/11/19 01:46:32;;;;;;;5.63;5.07;;;;;;;11.51;100.00;100516.38;2070617;28;20482;-64
2022/11/19 01:47:32;;;;;;;6.03;5.43;;;;;;;11.33;100.00;100495.91;2071130;28;20519;-64
2022/11/19 01:48:37;;;;;;;6.00;5.40;;;;;;;11.48;100.00;100525.56;2071503;28;20421;-64
2022/11/19 01:49:38;;;;;;;6.33;5.70;;;;;;;11.48;100.00;100516.47;2070567;28;20247;-64
2022/11/19 01:50:45;;;;;;;6.03;5.43;;;;;;;11.42;100.00;100521.78;2070853;28;20416;-62
2022/11/19 01:51:52;;;;;;;5.80;5.00;;;;;;;11.37;100.00;100519.53;2072544;28;20229;-61
2022/11/19 01:52:53;;;;;;;5.73;4.70;;;;;;;11.02;100.00;100483.72;2073198;28;20420;-62
2022/11/19 01:53:58;;;;;;;5.67;5.07;;;;;;;11.20;100.00;100512.50;2073011;28;20439;-61
2022/11/19 01:54:58;;;;;;;7.23;5.60;;;;;;;11.20;100.00;100523.59;2072937;28;20440;-61
2022/11/19 01:56:02;;;;;;;7.53;5.43;;;;;;;11.16;100.00;100527.69;2072966;28;20443;-61
2022/11/19 01:57:07;;;;;;;6.00;5.40;;;;;;;11.09;100.00;100525.13;2072769;28;20639;-61
2022/11/19 01:58:09;;;;;;;6.13;5.43;;;;;;;11.10;100.00;100523.88;2073096;28;20864;-61
2022/11/19 01:59:14;;;;;;;6.20;5.60;;;;;;;11.18;100.00;100526.03;2072313;28;20447;-62
2022/11/19 02:00:16;;;;;;;6.43;5.73;;;;;;;11.19;100.00;100533.16;2072094;28;20439;-61
2022/11/19 02:01:18;;;;;;;7.50;5.97;;;;;;;11.00;100.00;100519.41;2072799;28;20460;-61
2022/11/19 02:02:21;;;;;;;6.40;5.80;;;;;;;11.18;100.00;100531.56;2073020;28;20461;-61
2022/11/19 02:03:22;;;;;;;6.57;5.93;;;;;;;11.10;100.00;100546.06;2072261;28;20451;-61
2022/11/19 02:04:24;;;;;;;7.53;6.60;;;;;;;11.13;100.00;100561.84;2073114;28;20420;-61
2022/11/19 02:05:26;;;;;;;10.37;6.83;;;;;;;11.00;100.00;100533.28;2072829;28;20450;-61
2022/11/19 02:06:29;;;;;;;7.47;6.77;;;;;;;11.12;100.00;100544.41;2071538;28;20456;-61
2022/11/19 02:07:33;;;;;;;7.77;6.97;;;;;;;11.10;100.00;100552.41;2071361;28;20429;-61
2022/11/19 02:08:38;;;;;;;10.23;7.17;;;;;;;11.03;100.00;100551.81;2072885;28;20492;-62
2022/11/19 02:09:39;;;;;;;11.73;7.40;;;;;;;11.00;100.00;100547.13;2080396;28;20431;-61
2022/11/19 02:10:42;;;;;;;8.17;7.37;;;;;;;10.97;100.00;100550.81;2079876;28;20596;-61
2022/11/19 02:11:49;;;;;;;8.00;7.03;;;;;;;10.87;100.00;100560.94;2073160;28;20493;-61
2022/11/19 02:13:04;;;;;;;10.10;7.67;;;;;;;10.79;100.00;100559.59;2072676;28;20531;-60
2022/11/19 02:14:29;;;;;;;8.23;7.30;;;;;;;10.79;100.00;100565.13;2072948;28;21056;-63
2022/11/19 02:15:40;;;;;;;9.97;7.50;;;;;;;10.13;100.00;100478.94;2072926;28;20436;-63
2022/11/19 02:16:52;;;;;;;8.67;7.10;;;;;;;10.68;100.00;100572.16;2073025;28;20500;-63
2022/11/19 02:18:14;;;;;;;9.33;8.43;;;;;;;10.56;100.00;100570.84;2072999;28;20442;-64
2022/11/19 02:19:41;;;;;;;10.87;7.40;;;;;;;10.56;100.00;100570.84;2072312;28;20399;-64
2022/11/19 02:20:47;;;;;;;7.97;7.27;;;;;;;10.59;100.00;100571.97;2072624;28;20531;-64
2022/11/19 02:22:25;;;;;;;8.33;7.50;;;;;;;10.61;100.00;100575.84;2072124;28;20514;-64
2022/11/19 02:23:48;;;;;;;8.23;7.33;;;;;;;10.53;100.00;100563.41;2072151;28;20436;-63
2022/11/19 02:24:52;;;;;;;8.97;6.80;;;;;;;10.58;100.00;100567.63;2072595;28;20468;-64
2022/11/19 02:26:24;;;;;;;7.50;6.67;;;;;;;10.57;100.00;100580.72;2071760;28;20440;-63
2022/11/19 02:27:43;;;;;;;7.83;6.10;;;;;;;10.57;100.00;100577.97;2072699;28;20451;-63
2022/11/19 02:28:51;;;;;;;6.27;5.67;;;;;;;10.61;100.00;100586.19;2071921;28;20418;-64
2022/11/19 02:30:06;;;;;;;6.23;5.63;;;;;;;10.51;100.00;100563.03;2072891;28;21024;-63
2022/11/19 02:31:22;;;;;;;5.80;5.20;;;;;;;10.64;100.00;100577.78;2072872;28;20556;-64
2022/11/19 02:32:35;;;;;;;5.80;5.20;;;;;;;10.72;100.00;100581.16;2071923;28;20470;-64
2022/11/19 02:33:48;;;;;;;7.30;5.60;;;;;;;10.77;100.00;100588.94;2072971;28;20509;-64
2022/11/19 02:35:05;;;;;;;6.23;5.63;;;;;;;10.81;100.00;100595.19;2072462;28;20450;-64
2022/11/19 02:36:13;;;;;;;6.40;5.70;;;;;;;10.85;100.00;100593.88;2072519;28;20511;-64
2022/11/19 02:37:25;;;;;;;5.77;5.17;;;;;;;10.05;100.00;100454.63;2071947;28;20452;-64
2022/11/19 02:38:48;;;;;;;6.10;5.50;;;;;;;10.96;100.00;100601.94;2072428;28;20451;-64
2022/11/19 02:40:19;;;;;;;7.03;5.33;;;;;;;10.93;100.00;100608.34;2072722;28;20521;-64
2022/11/19 02:41:36;;;;;;;5.87;5.00;;;;;;;11.04;100.00;100619.94;2071567;28;20512;-65
2022/11/19 02:43:14;;;;;;;7.63;5.47;;;;;;;11.10;100.00;100615.41;2072422;28;20847;-64
2022/11/19 02:45:56;;;;;;;5.83;5.23;;;;;;;11.03;100.00;100632.25;2072153;28;20734;-64
2022/11/19 02:46:58;;;;;;;6.80;5.03;;;;;;;11.01;100.00;100632.66;2072883;28;20417;-64
2022/11/19 02:48:32;;;;;;;6.40;5.23;;;;;;;11.07;100.00;100632.94;2072776;28;20425;-64
2022/11/19 02:49:37;;;;;;;6.37;5.13;;;;;;;11.08;100.00;100626.16;2071926;28;20431;-64
2022/11/19 02:50:59;;;;;;;5.97;5.03;;;;;;;11.06;100.00;100637.69;2071634;28;20450;-64
2022/11/19 02:52:00;;;;;;;5.03;4.53;;;;;;;11.11;100.00;100630.81;2072421;28;20587;-64
2022/11/19 02:53:03;;;;;;;5.40;4.50;;;;;;;11.14;100.00;100636.31;2079562;28;21026;-64
2022/11/19 02:54:04;;;;;;;6.37;4.90;;;;;;;11.14;100.00;100632.75;2079747;28;20424;-64
2022/11/19 02:55:05;;;;;;;5.03;4.50;;;;;;;11.16;100.00;100649.72;2072496;28;21008;-64
2022/11/19 02:56:16;;;;;;;5.63;5.00;;;;;;;11.28;100.00;100652.56;2072960;28;20229;-64
2022/11/19 02:57:16;;;;;;;5.10;4.60;;;;;;;11.36;100.00;100645.63;2072718;28;20495;-63
2022/11/19 03:05:18;;;;;;;6.67;5.23;;;;;;;10.92;100.00;100545.78;2072471;28;20436;-64
2022/11/19 03:06:25;;;;;;;4.37;3.97;;;;;;;11.62;100.00;100624.31;2071993;28;20420;-64
2022/11/19 03:07:26;;;;;;;5.80;4.40;;;;;;;11.61;100.00;100622.75;2072446;28;20519;-63
2022/11/19 03:08:27;;;;;;;5.03;4.30;;;;;;;11.59;100.00;100612.09;2072416;28;20436;-65
2022/11/19 03:09:30;;;;;;;4.90;4.20;;;;;;;11.66;100.00;100616.69;2071750;28;20197;-63
2022/11/19 03:10:40;;;;;;;5.93;4.30;;;;;;;11.33;100.00;100591.00;2072034;28;20451;-64
2022/11/19 03:11:48;;;;;;;4.47;4.07;;;;;;;11.73;100.00;100622.03;2072621;28;20498;-64
2022/11/19 03:12:57;;;;;;;4.60;4.13;;;;;;;11.66;100.00;100636.09;2075002;28;20967;-64
2022/11/19 03:17:20;;;;;;;5.00;4.50;;;;;;;10.84;100.00;100516.69;2071879;28;20393;-64
2022/11/19 03:19:03;;;;;;;5.00;4.50;;;;;;;11.60;100.00;100649.75;2072520;28;20412;-63
2022/11/19 03:20:24;;;;;;;5.10;4.60;;;;;;;11.60;100.00;100648.97;2079549;28;20458;-64
2022/11/19 03:21:37;;;;;;;5.60;4.77;;;;;;;11.58;100.00;100668.03;2078577;28;20927;-64
2022/11/19 03:22:48;;;;;;;4.83;4.43;;;;;;;11.60;100.00;100669.19;2079596;28;20420;-64
2022/11/19 03:24:04;;;;;;;6.93;5.27;;;;;;;11.62;100.00;100672.28;2079150;28;20416;-64
2022/11/19 03:25:31;;;;;;;8.03;5.10;;;;;;;11.67;100.00;100682.06;2078942;28;20422;-65
2022/11/19 03:26:34;;;;;;;7.33;5.37;;;;;;;11.66;100.00;100684.09;2072368;28;20980;-61
2022/11/19 03:27:59;;;;;;;5.67;5.17;;;;;;;11.66;100.00;100700.75;2072176;28;20698;-61
2022/11/19 03:29:04;;;;;;;6.13;5.20;;;;;;;11.73;100.00;100697.00;2070736;28;20467;-62
2022/11/19 03:30:06;;;;;;;6.07;5.47;;;;;;;11.58;100.00;100677.13;2072368;28;20444;-62
2022/11/19 03:31:08;;;;;;;6.00;5.40;;;;;;;11.36;100.00;100640.06;2072069;28;20464;-61
2022/11/19 03:32:15;;;;;;;5.47;4.97;;;;;;;11.69;100.00;100721.28;2072124;28;20439;-61
2022/11/19 03:33:20;;;;;;;5.87;5.20;;;;;;;11.72;100.00;100698.97;2071574;28;20416;-62
2022/11/19 03:34:25;;;;;;;6.07;5.53;;;;;;;11.28;100.00;100627.59;2072214;28;20448;-62
2022/11/19 03:35:32;;;;;;;5.93;5.33;;;;;;;11.74;100.00;100696.53;2071949;28;20420;-61
2022/11/19 03:36:39;;;;;;;6.83;5.53;;;;;;;11.74;100.00;100715.22;2071746;28;20463;-62
2022/11/19 03:37:43;;;;;;;6.30;5.70;;;;;;;11.75;100.00;100714.00;2072216;28;20481;-61
2022/11/19 03:38:48;;;;;;;6.07;5.53;;;;;;;11.71;100.00;100699.41;2072317;28;20428;-62
2022/11/19 03:39:50;;;;;;;6.30;5.70;;;;;;;11.70;100.00;100701.44;2072621;28;20417;-62
2022/11/19 03:40:53;;;;;;;6.07;5.47;;;;;;;10.96;100.00;100590.84;2071355;28;20424;-61
2022/11/19 03:41:56;;;;;;;6.97;5.27;;;;;;;11.61;100.00;100684.63;2072040;28;20960;-61
2022/11/19 03:42:59;;;;;;;7.50;5.83;;;;;;;11.56;100.00;100687.09;2071556;28;20816;-62
2022/11/19 03:44:06;;;;;;;6.43;5.57;;;;;;;11.59;100.00;100697.38;2072173;28;20444;-61
2022/11/19 03:45:16;;;;;;;6.53;5.93;;;;;;;11.66;100.00;100709.06;2070416;28;20436;-62
2022/11/19 03:46:19;;;;;;;5.63;5.13;;;;;;;11.65;100.00;100715.06;2079675;28;20506;-62
2022/11/19 03:47:23;;;;;;;5.90;5.30;;;;;;;11.66;100.00;100713.81;2078988;28;20447;-61
2022/11/19 03:48:26;;;;;;;6.17;5.57;;;;;;;11.68;100.00;100719.75;2072313;28;20454;-61
2022/11/19 03:49:32;;;;;;;6.80;5.60;;;;;;;11.67;100.00;100713.41;2071851;28;20986;-61
2022/11/19 03:50:46;;;;;;;6.57;5.97;;;;;;;11.72;100.00;100723.97;2072239;28;20420;-61
2022/11/19 03:51:55;;;;;;;5.90;5.40;;;;;;;11.22;100.00;100640.44;2070829;28;20490;-62
2022/11/19 03:52:58;;;;;;;6.00;5.50;;;;;;;11.71;100.00;100729.94;2071631;28;20484;-61
2022/11/19 03:53:58;;;;;;;6.37;5.63;;;;;;;11.66;100.00;100736.03;2071530;28;20433;-61
2022/11/19 03:54:59;;;;;;;6.07;5.47;;;;;;;11.59;100.00;100737.00;2072230;28;20424;-61
2022/11/19 03:56:06;;;;;;;6.27;5.67;;;;;;;11.61;100.00;100734.59;2072134;28;20580;-61
2022/11/19 03:57:09;;;;;;;6.23;5.63;;;;;;;11.48;100.00;100721.81;2072346;28;20663;-61
2022/11/19 03:58:10;;;;;;;6.50;5.90;;;;;;;11.59;100.00;100733.47;2072067;28;20460;-62
2022/11/19 03:59:11;;;;;;;7.23;5.50;;;;;;;11.48;100.00;100730.16;2071851;28;20928;-62
2022/11/19 04:00:12;;;;;;;6.67;6.07;;;;;;;11.51;100.00;100745.91;2079512;28;21043;-61
2022/11/19 04:01:13;;;;;;;6.67;6.07;;;;;;;11.17;100.00;100698.44;2079334;28;20960;-61
2022/11/19 04:02:15;;;;;;;8.43;5.87;;;;;;;11.07;100.00;100689.16;2071734;28;20182;-62
2022/11/19 04:03:15;;;;;;;6.47;5.87;;;;;;;11.56;100.00;100756.50;2071876;28;20424;-62
2022/11/19 04:05:35;;;;;;;7.33;6.30;;;;;;;11.47;100.00;100764.69;2071478;28;20202;-62
2022/11/19 04:06:35;;;;;;;6.80;6.10;;;;;;;11.36;100.00;100745.50;2071243;28;20506;-61
2022/11/19 04:07:35;;;;;;;7.50;5.50;;;;;;;11.43;100.00;100758.44;2072116;28;20266;-61
2022/11/19 04:08:36;;;;;;;6.90;6.20;;;;;;;11.20;100.00;100715.00;2072378;28;20189;-62
2022/11/19 04:09:38;;;;;;;7.80;6.00;;;;;;;11.42;100.00;100763.19;2071698;28;20232;-61
2022/11/19 04:10:38;;;;;;;7.50;6.27;;;;;;;10.41;100.00;100611.19;2071974;28;20279;-62
2022/11/19 04:11:39;;;;;;;6.37;5.77;;;;;;;11.38;100.00;100765.25;2072158;28;20495;-62
2022/11/19 04:12:40;;;;;;;6.40;5.80;;;;;;;10.62;100.00;100662.56;2071415;28;20282;-62
2022/11/19 04:13:40;;;;;;;6.90;6.07;;;;;;;11.35;100.00;100766.16;2072027;28;20240;-62
2022/11/19 04:14:40;;;;;;;8.53;6.40;;;;;;;10.86;100.00;100692.44;2071601;28;20187;-61
2022/11/19 04:15:41;;;;;;;6.53;5.90;;;;;;;11.45;100.00;100767.09;2071571;28;20186;-61
2022/11/19 04:16:41;;;;;;;7.13;6.20;;;;;;;11.46;100.00;100761.09;2072243;28;20690;-61
2022/11/19 04:17:42;;;;;;;7.00;6.30;;;;;;;11.47;100.00;100767.44;2072112;28;20276;-61
2022/11/19 04:18:42;;;;;;;6.60;6.00;;;;;;;11.47;100.00;100773.00;2071949;28;20244;-61
2022/11/19 04:19:43;;;;;;;6.20;5.60;;;;;;;11.48;100.00;100772.53;2071830;28;20192;-61
2022/11/19 04:20:44;;;;;;;6.30;5.70;;;;;;;11.33;100.00;100757.47;2071586;28;20574;-62
2022/11/19 04:21:45;;;;;;;7.03;6.30;;;;;;;11.46;100.00;100768.63;2071153;28;20217;-62
2022/11/19 04:22:45;;;;;;;7.00;6.30;;;;;;;11.49;100.00;100768.56;2071610;28;20605;-62
2022/11/19 04:23:46;;;;;;;6.00;5.50;;;;;;;11.46;100.00;100774.97;2071723;28;20212;-61
2022/11/19 04:24:46;;;;;;;6.50;5.90;;;;;;;11.34;100.00;100774.91;2072236;28;20614;-61
2022/11/19 04:25:47;;;;;;;6.60;6.00;;;;;;;11.39;100.00;100788.25;2072593;28;20234;-61
2022/11/19 04:26:47;;;;;;;6.33;5.70;;;;;;;11.42;100.00;100773.53;2071790;28;20193;-61
2022/11/19 04:27:47;;;;;;;6.30;5.70;;;;;;;11.38;100.00;100772.81;2071892;28;20185;-62
2022/11/19 04:28:48;;;;;;;7.07;5.70;;;;;;;11.36;100.00;100769.69;2071644;28;20269;-61
2022/11/19 04:29:48;;;;;;;5.93;5.40;;;;;;;11.38;100.00;100773.59;2071928;28;20178;-61
2022/11/19 04:30:49;;;;;;;6.87;5.80;;;;;;;10.80;100.00;100688.66;2071616;28;20198;-62
2022/11/19 04:31:49;;;;;;;6.80;5.93;;;;;;;11.42;100.00;100785.38;2071813;28;20319;-61
2022/11/19 04:32:49;;;;;;;6.60;5.90;;;;;;;11.36;100.00;100787.13;2072221;28;20184;-61
2022/11/19 04:33:50;;;;;;;6.10;5.50;;;;;;;11.38;100.00;100793.00;2071564;28;20195;-61
2022/11/19 04:34:50;;;;;;;6.17;5.57;;;;;;;11.39;100.00;100796.56;2071713;28;20185;-61
2022/11/19 04:35:51;;;;;;;6.77;5.77;;;;;;;11.40;100.00;100800.91;2071028;28;20674;-61
2022/11/19 04:36:51;;;;;;;6.73;6.00;;;;;;;11.43;100.00;100808.38;2071880;28;20557;-62
2022/11/19 04:37:51;;;;;;;6.70;6.10;;;;;;;11.38;100.00;100797.78;2071492;28;20212;-61
2022/11/19 04:38:52;;;;;;;5.90;5.40;;;;;;;11.48;100.00;100805.84;2071738;28;20208;-61
2022/11/19 04:39:52;;;;;;;5.93;5.37;;;;;;;11.53;100.00;100810.88;2071790;28;20202;-61
2022/11/19 04:40:53;;;;;;;5.87;5.37;;;;;;;11.58;100.00;100818.69;2071996;28;20205;-62
2022/11/19 04:41:53;;;;;;;5.53;4.80;;;;;;;11.64;100.00;100814.19;2071273;28;20292;-61
2022/11/19 04:42:54;;;;;;;5.70;4.80;;;;;;;11.61;100.00;100815.06;2071916;28;20678;-61
2022/11/19 04:43:54;;;;;;;5.30;4.80;;;;;;;11.62;100.00;100819.41;2071725;28;20209;-61
2022/11/19 04:44:54;;;;;;;5.40;4.90;;;;;;;11.69;100.00;100821.22;2071864;28;20203;-61
2022/11/19 04:45:55;;;;;;;4.83;4.33;;;;;;;11.71;100.00;100827.91;2071575;28;20725;-62
2022/11/19 04:46:55;;;;;;;4.97;4.47;;;;;;;11.71;100.00;100824.34;2071774;28;20626;-62
2022/11/19 04:47:56;;;;;;;5.67;5.10;;;;;;;11.78;100.00;100830.50;2071707;28;20268;-61
2022/11/19 04:48:56;;;;;;;5.50;5.00;;;;;;;11.82;100.00;100833.97;2071238;28;20772;-61
2022/11/19 04:49:57;;;;;;;5.30;4.70;;;;;;;11.81;100.00;100828.84;2072173;28;20187;-61
2022/11/19 04:50:57;;;;;;;6.10;5.07;;;;;;;11.53;100.00;100774.78;2071807;28;20188;-61
2022/11/19 04:51:57;;;;;;;5.23;4.53;;;;;;;11.69;100.00;100819.22;2071695;28;20686;-61
2022/11/19 04:52:58;;;;;;;5.57;4.40;;;;;;;11.77;100.00;100825.38;2071333;28;20669;-61
2022/11/19 04:53:59;;;;;;;5.00;3.90;;;;;;;11.79;100.00;100832.06;2071490;28;20186;-61
2022/11/19 04:54:59;;;;;;;4.57;4.17;;;;;;;11.79;100.00;100826.50;2071457;28;20452;-61
2022/11/19 04:56:00;;;;;;;5.07;4.23;;;;;;;11.79;100.00;100823.72;2071356;28;20276;-61
2022/11/19 04:57:00;;;;;;;4.77;4.23;;;;;;;11.79;100.00;100826.50;2071764;28;20177;-61
2022/11/19 04:58:01;;;;;;;5.03;4.30;;;;;;;11.78;100.00;100819.38;2072216;28;20639;-61
2022/11/19 04:59:01;;;;;;;5.73;4.07;;;;;;;11.84;100.00;100814.88;2071709;28;20217;-61
2022/11/19 05:00:03;;;;;;;5.10;4.27;;;;;;;11.87;100.00;100825.13;2075061;28;20636;-61
2022/11/19 05:01:04;;;;;;;4.80;4.40;;;;;;;11.78;100.00;100808.28;2075910;28;20212;-61
2022/11/19 05:02:04;;;;;;;4.70;4.30;;;;;;;11.80;100.00;100821.75;2071781;28;20467;-60
2022/11/19 05:03:05;;;;;;;4.57;4.10;;;;;;;11.77;100.00;100815.06;2071529;28;20201;-61
2022/11/19 05:04:05;;;;;;;4.40;4.00;;;;;;;11.71;100.00;100824.34;2071748;28;20193;-61
2022/11/19 05:05:06;;;;;;;6.33;4.30;;;;;;;11.46;100.00;100797.19;2071519;28;20181;-62
2022/11/19 05:06:07;;;;;;;4.57;4.17;;;;;;;11.66;100.00;100828.44;2072009;28;20181;-61
2022/11/19 05:07:07;;;;;;;5.40;4.20;;;;;;;11.68;100.00;100830.78;2071780;28;20444;-62